Flight Track Log - Related Links

Times and Time Zones

All times are in EDT time to prevent confusion due to time zone crossing. See the EJA122 flight status page for this flight to view local times or setup timezone preferences in your user account.

Time Position Orientation Groundspeed Altitude Reporting Facility
EDT Latitude Longitude Course Direction KTS MPH feet Rate Location/Type
Sun 01:16:58 PM 37.9258 -100.7222 North 27 31 2,900  Level Kansas City Center
Sun 01:18:00 PM 37.9686 -100.7139 North 139 160 4,300 1,887 Climbing Kansas City Center
Sun 01:19:02 PM 37.9572 -100.6492 103° East 194 223 6,800 1,935 Climbing Kansas City Center
Sun 01:20:04 PM 37.9053 -100.5817 134° Southeast 224 258 8,300 1,452 Climbing Kansas City Center
Sun 01:21:06 PM 37.8528 -100.5147 135° Southeast 255 293 9,800 1,403 Climbing Kansas City Center
Sun 01:22:08 PM 37.7869 -100.4306 135° Southeast 287 330 11,200 1,452 Climbing Kansas City Center
Sun 01:23:10 PM 37.7247 -100.3517 135° Southeast 318 366 12,800 1,645 Climbing Kansas City Center
Sun 01:24:12 PM 37.6489 -100.2569 135° Southeast 338 389 14,600 1,500 Climbing Kansas City Center
Sun 01:25:14 PM 37.5842 -100.1739 135° Southeast 344 396 15,900 1,306 Climbing Kansas City Center
Sun 01:26:16 PM 37.5047 -100.0744 135° Southeast 356 410 17,300 1,210 Climbing Kansas City Center
Sun 01:27:18 PM 37.4342 -99.9858 135° Southeast 369 425 18,400 1,065 Climbing Kansas City Center
Sun 01:28:20 PM 37.3622 -99.8961 135° Southeast 377 434 19,500 1,161 Climbing Kansas City Center
Sun 01:29:22 PM 37.2775 -99.7883 135° Southeast 385 443 20,800 1,065 Climbing Kansas City Center
Sun 01:30:24 PM 37.2014 -99.6975 136° Southeast 392 451 21,700 968 Climbing Kansas City Center
Sun 01:31:26 PM 37.1131 -99.5847 134° Southeast 402 463 22,800 1,016 Climbing Kansas City Center
Sun 01:32:28 PM 37.0306 -99.4828 135° Southeast 407 468 23,800 968 Climbing Kansas City Center
Sun 01:33:30 PM 36.9497 -99.3744 133° Southeast 417 480 24,800 968 Climbing Kansas City Center
Sun 01:34:32 PM 36.8667 -99.2822 138° Southeast 409 471 25,800 919 Climbing Kansas City Center
Sun 01:35:34 PM 36.7850 -99.1814 135° Southeast 410 472 26,700 919 Climbing Kansas City Center
Sun 01:36:36 PM 36.7053 -99.0819 135° Southeast 406 467 27,700 968 Climbing Kansas City Center
Sun 01:37:38 PM 36.6228 -98.9886 138° Southeast 403 464 28,700 1,016 Climbing Kansas City Center
Sun 01:38:40 PM 36.5036 -98.9139 153° Southeast 398 458 29,800 1,016 Climbing Kansas City Center
Sun 01:39:42 PM 36.4042 -98.8544 154° Southeast 392 451 30,800 823 Climbing Kansas City Center
Sun 01:40:44 PM 36.3039 -98.7961 155° Southeast 394 453 31,500 677 Climbing Kansas City Center
Sun 01:41:46 PM 36.2086 -98.7400 155° Southeast 399 459 32,200 677 Climbing Kansas City Center
Sun 01:42:48 PM 36.0975 -98.6769 155° Southeast 403 464 32,900 677 Climbing Kansas City Center
Sun 01:43:50 PM 35.9936 -98.6169 155° Southeast 407 468 33,600 677 Climbing Kansas City Center
Sun 01:44:52 PM 35.8906 -98.5567 155° Southeast 406 467 34,300 581 Climbing Kansas City Center
Sun 01:45:54 PM 35.7864 -98.4986 156° South 408 470 34,800 480 Climbing Kansas City Center
Sun 01:46:57 PM 35.6817 -98.4394 155° Southeast 410 472 35,300 519 Climbing Kansas City Center
Sun 01:47:38 PM 35.5922 -98.3911 156° South 394 453 35,700 475 Climbing Fort Worth Center
Sun 01:48:38 PM 35.4903 -98.3339 155° Southeast 394 453 36,100 450 Climbing Fort Worth Center
Sun 01:49:38 PM 35.3844 -98.2742 155° Southeast 394 453 36,600 450 Climbing Fort Worth Center
Sun 01:50:38 PM 35.2825 -98.2197 156° South 399 459 37,000 200 Climbing Fort Worth Center
Sun 01:51:38 PM 35.1786 -98.1603 155° Southeast 399 459 37,000  Level Fort Worth Center
Sun 01:52:38 PM 35.0686 -98.0983 155° Southeast 409 471 37,000  Level Fort Worth Center
Sun 01:53:38 PM 34.9583 -98.0367 155° Southeast 428 493 37,000  Level Fort Worth Center
Sun 01:54:38 PM 34.8458 -97.9728 155° Southeast 442 509 37,000  Level Fort Worth Center
Sun 01:55:38 PM 34.7314 -97.9114 156° South 442 509 37,000  Level Fort Worth Center
Sun 01:57:38 PM 34.5025 -97.7814 155° Southeast 447 514 37,000  Level Fort Worth Center
Sun 01:58:38 PM 34.3878 -97.7206 156° South 447 514 37,000  Level Fort Worth Center
Sun 01:59:38 PM 34.2733 -97.6572 155° Southeast 452 520 37,000  Level Fort Worth Center
Sun 02:00:38 PM 34.1564 -97.5942 156° South 458 527 37,000  Level Fort Worth Center
Sun 02:01:38 PM 34.0481 -97.5289 153° Southeast 451 519 37,000  Level Fort Worth Center
Sun 02:02:38 PM 33.9314 -97.4636 155° Southeast 446 513 37,000  Level Fort Worth Center
Sun 02:03:38 PM 33.8144 -97.4008 156° South 446 513 37,000  Level Fort Worth Center
Sun 02:04:38 PM 33.6997 -97.3386 156° South 451 519 37,000  Level Fort Worth Center
Sun 02:05:38 PM 33.5847 -97.2739 155° Southeast 451 519 37,000  Level Fort Worth Center
Sun 02:06:38 PM 33.4825 -97.2192 156° South 457 526 37,000  Level Fort Worth Center
Sun 02:07:38 PM 33.3653 -97.1572 156° South 457 526 37,000  Level Fort Worth Center
Sun 02:08:38 PM 33.2506 -97.0931 155° Southeast 457 526 37,000  Level Fort Worth Center
Sun 02:09:38 PM 33.1333 -97.0314 156° South 457 526 37,000  Level Fort Worth Center
Sun 02:10:38 PM 33.0039 -96.9650 157° South 457 526 37,000  Level Fort Worth Center
Sun 02:11:38 PM 32.8950 -96.9136 158° South 462 532 37,000  Level Fort Worth Center
Sun 02:12:38 PM 32.7697 -96.8969 174° South 452 520 37,000  Level Fort Worth Center
Sun 02:13:38 PM 32.6422 -96.8903 177° South 457 526 37,000  Level Fort Worth Center
Sun 02:14:38 PM 32.5150 -96.8814 177° South 462 532 37,000  Level Fort Worth Center
Sun 02:15:38 PM 32.3917 -96.8769 178° South 457 526 37,000  Level Fort Worth Center
Sun 02:16:38 PM 32.2644 -96.8706 178° South 457 526 37,000  Level Fort Worth Center
Sun 02:17:38 PM 32.1369 -96.8639 177° South 457 526 37,000  Level Fort Worth Center
Sun 02:18:38 PM 32.0139 -96.8572 177° South 457 526 37,000  Level Fort Worth Center
Sun 02:19:38 PM 31.8781 -96.8483 177° South 457 526 37,000  Level Fort Worth Center
Sun 02:20:38 PM 31.7506 -96.8417 177° South 457 526 37,000  Level Fort Worth Center
Sun 02:21:08 PM 31.6925 -96.8367 176° South 451 519 37,000  Level Houston Center
Sun 02:22:10 PM 31.5656 -96.8156 172° South 453 521 37,000  Level Houston Center
Sun 02:23:12 PM 31.4406 -96.7942 172° South 450 518 37,000  Level Houston Center
Sun 02:24:14 PM 31.3139 -96.7739 172° South 452 520 37,000 -581 Level Houston Center
Sun 02:25:16 PM 31.1872 -96.7531 172° South 450 518 35,800 -1,548 Descending Houston Center
Sun 02:26:18 PM 31.0578 -96.7322 172° South 458 527 33,800 -2,129 Descending Houston Center
Sun 02:27:20 PM 30.9253 -96.7111 172° South 470 541 31,400 -2,661 Descending Houston Center
Sun 02:28:22 PM 30.7992 -96.6922 173° South 454 522 28,300 -3,194 Descending Houston Center
Sun 02:29:24 PM 30.6531 -96.6686 172° South 447 514 24,800 -3,145 Descending Houston Center
Sun 02:30:26 PM 30.5367 -96.5989 153° Southeast 467 537 21,800 -2,806 Descending Houston Center
Sun 02:31:28 PM 30.4506 -96.4978 135° Southeast 439 505 19,000 -2,613 Descending Houston Center
Sun 02:32:30 PM 30.3672 -96.3994 134° Southeast 427 491 16,400 -2,516 Descending Houston Center
Sun 02:33:32 PM 30.2894 -96.3053 134° Southeast 401 461 13,800 -2,653 Descending Houston Center
Sun 02:34:05 PM 30.2411 -96.2525 137° Southeast 394 453 12,200 -1,768 Descending Houston Center
Sun 02:35:07 PM 30.1439 -96.1958 153° Southeast 366 421 11,000 -927 Descending Houston Center
Sun 02:36:08 PM 30.0494 -96.1461 155° Southeast 359 413 10,300 -659 Descending Houston Center
Sun 02:36:38 PM 30.0081 -96.1217 153° Southeast 360 414 10,000 -986 Descending Houston Center
Sun 02:37:21 PM 29.9564 -96.0867 150° Southeast 277 319 9,100 -1,161 Descending Houston Center
Sun 02:38:11 PM 29.8983 -96.0475 150° Southeast 289 333 8,200 -963 Descending Houston Center
Sun 02:38:42 PM 29.8678 -96.0278 151° Southeast 290 334 7,800 -1,091 Descending Houston Center
Sun 02:39:17 PM 29.8189 -96.0011 155° Southeast 289 333 7,000 -495 Descending Houston Center
Sun 02:40:19 PM 29.7522 -95.9583 151° Southeast 279 321 7,000 -98 Level Houston Center
Sun 02:41:20 PM 29.6944 -95.8975 138° Southeast 285 328 6,800 -443 Descending Houston Center
Sun 02:42:21 PM 29.6553 -95.8347 126° Southeast 239 275 6,100 -362 Descending Houston Center
Sun 02:43:16 PM 29.6039 -95.8000 150° Southeast 230 265 6,100  Level Houston Center
Sun 02:43:52 PM 29.6061 -95.7531 87° East 260 299 6,100  Level Houston Center
Sun 02:44:55 PM 29.6589 -95.6931 45° Northeast 269 310 6,100 -48 Level Houston Center
Sun 02:45:56 PM 29.7103 -95.6361 44° Northeast 260 299 6,000 -780 Descending Houston Center
Sun 02:46:58 PM 29.7517 -95.5744 52° Northeast 249 287 4,500 -1,403 Descending Houston Center
Sun 02:48:00 PM 29.7692 -95.5014 75° East 241 277 3,100 -927 Descending Houston Center
Sun 02:49:01 PM 29.7783 -95.4400 80° East 227 261 2,600 -488 Descending Houston Center
Sun 02:50:03 PM 29.7403 -95.3919 132° Southeast 184 212 2,100 -435 Descending Houston Center
Sun 02:51:05 PM 29.7078 -95.3531 134° Southeast 173 199 1,700 -581 Descending Houston Center
Sun 02:52:07 PM 29.6772 -95.3175 135° Southeast 166 191 900 -726 Descending Houston Center
Sun 02:53:09 PM 29.6536 -95.2881 133° Southeast 147 169 200 -677 Descending Houston Center
Sun 02:55:00 PM 29.6454 -95.2789 115° Southeast  Level Estimated

Login

Don't have an account? Register now (free) for customized features, flight alerts, and more!